createdAt,value
2018-07-09T00:01:47.595Z,6.17
2018-07-09T00:03:49.703Z,7.10
2018-07-09T00:05:51.917Z,6.80
2018-07-09T00:07:54.087Z,6.67
2018-07-09T00:09:56.498Z,6.33
2018-07-09T00:11:59.565Z,6.73
2018-07-09T00:14:01.679Z,6.80
2018-07-09T00:16:03.894Z,7.03
2018-07-09T00:18:06.022Z,6.30
2018-07-09T00:20:14.818Z,6.70
2018-07-09T00:22:16.919Z,6.43
2018-07-09T00:24:19.213Z,6.27
2018-07-09T00:26:21.326Z,10.50
2018-07-09T00:28:24.028Z,6.23
2018-07-09T00:30:26.488Z,6.33
2018-07-09T00:32:28.604Z,6.73
2018-07-09T00:34:30.714Z,6.90
2018-07-09T00:36:32.812Z,6.97
2018-07-09T00:38:34.900Z,6.57
2018-07-09T00:40:37.117Z,6.30
2018-07-09T00:42:39.231Z,6.13
2018-07-09T00:44:41.350Z,6.60
2018-07-09T00:46:43.446Z,7.40
2018-07-09T00:48:45.676Z,6.77
2018-07-09T00:50:47.867Z,6.70
2018-07-09T00:52:50.043Z,7.40
2018-07-09T00:54:52.179Z,7.10
2018-07-09T00:56:54.280Z,6.60
2018-07-09T00:58:56.526Z,6.47
2018-07-09T01:00:58.606Z,5.70
2018-07-09T01:03:00.689Z,6.57
2018-07-09T01:05:02.804Z,7.10
2018-07-09T01:07:04.945Z,7.07
2018-07-09T01:09:07.055Z,6.73
2018-07-09T01:11:20.623Z,6.33
2018-07-09T01:13:53.558Z,7.50
2018-07-09T01:15:56.595Z,6.87
2018-07-09T01:17:58.674Z,7.07
2018-07-09T01:20:00.786Z,7.20
2018-07-09T01:22:03.539Z,6.53
2018-07-09T01:24:05.645Z,6.67
2018-07-09T01:26:08.279Z,7.40
2018-07-09T01:28:10.393Z,7.27
2018-07-09T01:30:13.906Z,7.50
2018-07-09T01:32:15.987Z,6.80
2018-07-09T01:34:18.075Z,7.47
2018-07-09T01:36:20.150Z,6.73
2018-07-09T01:38:22.210Z,6.50
2018-07-09T01:40:24.290Z,7.67
2018-07-09T01:42:26.394Z,7.23
2018-07-09T01:44:28.470Z,7.20
2018-07-09T01:46:30.581Z,6.77
2018-07-09T01:48:32.865Z,7.57
2018-07-09T01:50:34.977Z,7.50
2018-07-09T01:52:37.855Z,6.90
2018-07-09T01:54:39.942Z,6.80
2018-07-09T01:56:42.026Z,7.00
2018-07-09T01:58:44.137Z,6.80
2018-07-09T02:00:46.247Z,6.80
2018-07-09T02:02:48.326Z,6.97
2018-07-09T02:04:50.399Z,7.30
2018-07-09T02:06:52.650Z,6.60
2018-07-09T02:08:54.749Z,7.17
2018-07-09T02:10:56.837Z,7.50
2018-07-09T02:12:58.939Z,7.67
2018-07-09T02:15:01.011Z,6.70
2018-07-09T02:17:03.113Z,6.63
2018-07-09T02:19:05.206Z,8.50
2018-07-09T02:21:18.230Z,7.10
2018-07-09T02:23:20.316Z,7.03
2018-07-09T02:25:23.366Z,7.40
2018-07-09T02:27:25.742Z,6.97
2018-07-09T02:29:27.818Z,7.53
2018-07-09T02:31:29.906Z,7.17
2018-07-09T02:33:31.994Z,6.80
2018-07-09T02:35:34.114Z,6.63
2018-07-09T02:37:36.193Z,7.17
2018-07-09T02:39:38.275Z,6.00
2018-07-09T02:41:40.421Z,6.70
2018-07-09T02:43:42.501Z,7.30
2018-07-09T02:45:44.613Z,6.30
2018-07-09T02:47:47.149Z,6.73
2018-07-09T02:49:49.247Z,6.70
2018-07-09T02:51:51.353Z,6.63
2018-07-09T02:53:53.470Z,6.70
2018-07-09T02:55:55.557Z,6.90
2018-07-09T02:57:57.686Z,6.60
2018-07-09T02:59:59.763Z,6.43
2018-07-09T03:02:01.875Z,7.10
2018-07-09T03:04:03.984Z,6.67
2018-07-09T03:06:06.090Z,6.90
2018-07-09T03:08:08.178Z,6.20
2018-07-09T03:10:10.262Z,6.43
2018-07-09T03:12:12.378Z,6.77
2018-07-09T03:14:14.458Z,6.47
2018-07-09T03:16:16.593Z,10.03
2018-07-09T03:18:18.699Z,8.80
2018-07-09T03:20:20.766Z,8.80
2018-07-09T03:22:22.846Z,7.87
2018-07-09T03:24:24.922Z,7.70
2018-07-09T03:26:27.012Z,7.30
2018-07-09T03:28:29.093Z,8.00
2018-07-09T03:30:31.201Z,7.57
2018-07-09T03:32:33.394Z,7.70
2018-07-09T03:36:44.216Z,14.93
2018-07-09T03:38:46.300Z,11.43
2018-07-09T03:40:48.387Z,7.90
2018-07-09T03:42:50.501Z,10.20
2018-07-09T03:44:52.587Z,9.40
2018-07-09T03:46:54.658Z,21.60
2018-07-09T03:48:56.889Z,9.40
2018-07-09T03:50:58.996Z,8.07
2018-07-09T03:53:01.092Z,8.10
2018-07-09T03:55:03.289Z,7.43
2018-07-09T03:57:05.474Z,8.67
2018-07-09T03:59:07.562Z,8.07
2018-07-09T04:01:09.671Z,7.93
2018-07-09T04:03:11.770Z,8.57
2018-07-09T04:05:13.853Z,7.90
2018-07-09T04:07:15.954Z,8.77
2018-07-09T04:09:18.020Z,8.63
2018-07-09T04:11:20.120Z,7.77
2018-07-09T04:13:22.224Z,8.47
2018-07-09T04:15:24.294Z,7.40
2018-07-09T04:17:26.375Z,8.80
2018-07-09T04:19:28.569Z,8.40
2018-07-09T04:21:30.656Z,8.93
2018-07-09T04:23:32.729Z,8.50
2018-07-09T04:25:34.810Z,8.20
2018-07-09T04:27:36.897Z,8.70
2018-07-09T04:29:39.003Z,7.67
2018-07-09T04:31:41.122Z,8.60
2018-07-09T04:33:43.195Z,8.53
2018-07-09T04:35:45.309Z,8.40
2018-07-09T04:37:47.434Z,8.17
2018-07-09T04:39:49.433Z,9.47
2018-07-09T04:41:51.977Z,9.97
2018-07-09T04:43:54.080Z,8.40
2018-07-09T04:45:56.176Z,9.43
2018-07-09T04:47:58.262Z,8.60
2018-07-09T04:50:00.366Z,10.13
2018-07-09T04:52:02.474Z,9.13
2018-07-09T04:54:04.572Z,9.50
2018-07-09T04:56:06.734Z,9.50
2018-07-09T04:58:08.821Z,8.90
2018-07-09T05:00:10.909Z,10.37
2018-07-09T05:02:12.983Z,11.20
2018-07-09T05:04:15.054Z,10.80
2018-07-09T05:06:17.162Z,9.97
2018-07-09T05:08:19.247Z,11.10
2018-07-09T05:10:21.337Z,10.73
2018-07-09T05:12:23.417Z,11.27
2018-07-09T05:14:25.527Z,10.23
2018-07-09T05:16:27.614Z,10.37
2018-07-09T05:18:29.673Z,9.10
2018-07-09T05:20:31.775Z,9.70
2018-07-09T05:22:33.845Z,9.47
2018-07-09T05:24:35.935Z,9.20
2018-07-09T05:26:38.251Z,15.70
2018-07-09T05:28:40.338Z,10.80
2018-07-09T05:30:42.422Z,10.77
2018-07-09T05:32:44.519Z,10.80
2018-07-09T05:34:46.601Z,10.53
2018-07-09T05:36:48.809Z,10.43
2018-07-09T05:38:50.926Z,10.60
2018-07-09T05:40:53.174Z,10.87
2018-07-09T05:42:55.294Z,9.63
2018-07-09T05:45:00.279Z,10.13
2018-07-09T05:47:03.641Z,10.10
2018-07-09T05:49:10.465Z,11.43
2018-07-09T05:51:15.692Z,11.50
2018-07-09T05:53:18.708Z,11.13
2018-07-09T05:55:22.343Z,10.47
2018-07-09T05:57:25.186Z,10.40
2018-07-09T05:59:27.645Z,10.90
2018-07-09T06:01:30.011Z,11.07
2018-07-09T06:03:32.426Z,10.20
2018-07-09T06:05:35.495Z,9.70
2018-07-09T06:07:37.894Z,11.30
2018-07-09T06:09:40.301Z,9.80
2018-07-09T06:11:42.709Z,10.70
2018-07-09T06:13:45.044Z,9.10
2018-07-09T06:15:47.285Z,10.50
2018-07-09T06:17:51.708Z,9.73
2018-07-09T06:19:53.953Z,10.00
2018-07-09T06:21:56.231Z,10.27
2018-07-09T06:23:58.778Z,10.20
2018-07-09T06:26:01.172Z,8.53
2018-07-09T06:28:03.506Z,9.00
2018-07-09T06:30:05.942Z,9.87
2018-07-09T06:32:08.247Z,10.37
2018-07-09T06:34:10.494Z,9.00
2018-07-09T06:36:12.951Z,10.40
2018-07-09T06:38:15.346Z,8.83
2018-07-09T06:40:23.049Z,10.80
2018-07-09T06:42:25.473Z,23.63
2018-07-09T06:44:28.200Z,17.87
2018-07-09T06:46:31.100Z,12.03
2018-07-09T06:48:33.449Z,8.40
2018-07-09T06:50:36.695Z,7.83
2018-07-09T06:52:38.977Z,8.07
2018-07-09T06:54:41.461Z,8.13
2018-07-09T06:56:43.935Z,7.80
2018-07-09T06:58:46.290Z,7.77
2018-07-09T07:00:49.108Z,7.33
2018-07-09T07:02:51.466Z,7.67
2018-07-09T07:04:53.756Z,8.03
2018-07-09T07:06:56.047Z,7.70
2018-07-09T07:08:58.427Z,8.03
2018-07-09T07:11:00.714Z,8.77
2018-07-09T07:13:03.375Z,9.03
2018-07-09T07:15:05.799Z,9.37
2018-07-09T07:17:09.940Z,9.90
2018-07-09T07:19:12.455Z,9.07
2018-07-09T07:21:14.942Z,8.17
2018-07-09T07:23:18.431Z,7.83
2018-07-09T07:25:21.780Z,7.50
2018-07-09T07:27:24.188Z,7.20
2018-07-09T07:29:26.558Z,6.23
2018-07-09T07:31:28.882Z,5.50
2018-07-09T07:33:31.376Z,5.60
2018-07-09T07:35:33.842Z,5.30
2018-07-09T07:37:36.303Z,5.20
2018-07-09T07:39:38.703Z,5.33
2018-07-09T07:41:41.503Z,5.33
2018-07-09T07:43:43.871Z,4.73
2018-07-09T07:45:46.292Z,4.47
2018-07-09T07:47:48.863Z,5.20
2018-07-09T07:49:51.226Z,5.00
2018-07-09T07:51:53.707Z,5.20
2018-07-09T07:53:56.124Z,4.67
2018-07-09T07:55:58.628Z,5.03
2018-07-09T07:58:03.252Z,4.47
2018-07-09T08:00:06.968Z,4.30
2018-07-09T08:02:10.428Z,4.70
2018-07-09T08:04:13.783Z,4.27
2018-07-09T08:06:17.330Z,5.83
2018-07-09T08:08:21.055Z,4.70
2018-07-09T08:10:23.442Z,4.80
2018-07-09T08:13:27.716Z,4.33
2018-07-09T08:14:30.902Z,4.17
2018-07-09T08:16:33.308Z,5.50
2018-07-09T08:18:35.762Z,4.40
2018-07-09T08:20:38.218Z,4.40
2018-07-09T08:22:41.776Z,4.70
2018-07-09T08:24:45.799Z,4.03
2018-07-09T08:26:48.287Z,4.17
2018-07-09T08:28:50.757Z,4.03
2018-07-09T08:30:53.834Z,4.07
2018-07-09T08:32:57.684Z,4.20
2018-07-09T08:35:00.037Z,3.73
2018-07-09T08:37:02.350Z,4.10
2018-07-09T08:39:05.264Z,4.10
2018-07-09T08:41:09.318Z,3.63
2018-07-09T08:43:11.784Z,4.20
2018-07-09T08:47:53.199Z,3.90
2018-07-09T08:49:55.801Z,4.27
2018-07-09T08:52:00.011Z,4.27
2018-07-09T08:54:03.227Z,3.63
2018-07-09T08:56:06.451Z,3.27
2018-07-09T08:58:09.863Z,3.97
2018-07-09T09:00:13.363Z,3.67
2018-07-09T09:02:16.512Z,3.73
2018-07-09T09:04:19.775Z,3.70
2018-07-09T09:06:23.202Z,3.70
2018-07-09T09:08:29.391Z,3.13
2018-07-09T09:10:31.869Z,3.60
2018-07-09T09:12:34.406Z,3.80
2018-07-09T09:14:36.925Z,3.67
2018-07-09T09:16:39.481Z,4.23
2018-07-09T09:18:43.586Z,4.47
2018-07-09T09:20:47.675Z,5.27
2018-07-09T09:22:50.279Z,3.80
2018-07-09T09:24:54.295Z,3.80
2018-07-09T09:26:57.170Z,3.60
2018-07-09T09:29:00.442Z,5.37
2018-07-09T09:31:05.132Z,4.00
2018-07-09T09:33:07.639Z,8.43
2018-07-09T09:35:10.016Z,4.70
2018-07-09T09:37:12.375Z,3.73
2018-07-09T09:39:14.803Z,2.90
2018-07-09T09:41:17.255Z,3.67
2018-07-09T09:43:21.579Z,3.00
2018-07-09T09:45:24.104Z,3.20
2018-07-09T09:47:27.578Z,3.30
2018-07-09T09:49:30.338Z,3.00
2018-07-09T09:51:32.854Z,3.63
2018-07-09T09:53:38.006Z,3.70
2018-07-09T09:55:40.983Z,3.60
2018-07-09T09:57:43.489Z,3.23
2018-07-09T09:59:46.327Z,3.30
2018-07-09T10:01:48.909Z,3.50
2018-07-09T10:03:51.640Z,3.57
2018-07-09T10:05:55.117Z,3.30
2018-07-09T10:07:57.479Z,3.23
2018-07-09T10:09:59.868Z,3.20
2018-07-09T10:12:02.274Z,3.00
2018-07-09T10:14:04.834Z,3.50
2018-07-09T10:16:07.275Z,3.50
2018-07-09T10:20:49.159Z,3.70
2018-07-09T10:22:58.503Z,3.57
2018-07-09T10:25:01.617Z,3.13
2018-07-09T10:27:04.148Z,4.10
2018-07-09T10:29:07.479Z,3.90
2018-07-09T10:31:09.864Z,3.87
2018-07-09T10:33:13.182Z,3.83
2018-07-09T10:35:15.632Z,22.40
2018-07-09T10:37:18.094Z,5.27
2018-07-09T10:39:20.735Z,3.43
2018-07-09T10:41:23.134Z,3.50
2018-07-09T10:43:26.586Z,3.40
2018-07-09T10:45:28.901Z,3.50
2018-07-09T10:47:31.382Z,3.17
2018-07-09T10:49:33.875Z,3.67
2018-07-09T10:51:36.306Z,3.60
2018-07-09T10:53:45.463Z,4.13
2018-07-09T10:55:47.852Z,3.80
2018-07-09T10:57:50.346Z,4.03
2018-07-09T10:59:52.768Z,3.60
2018-07-09T11:01:55.178Z,3.70
2018-07-09T11:03:57.640Z,3.40
2018-07-09T11:06:00.191Z,2.97
2018-07-09T11:08:02.567Z,3.33
2018-07-09T11:10:05.003Z,3.43
2018-07-09T11:12:07.296Z,3.60
2018-07-09T11:14:09.624Z,2.93
2018-07-09T11:16:11.896Z,3.23
2018-07-09T11:18:14.242Z,3.57
2018-07-09T11:20:16.591Z,3.10
2018-07-09T11:22:19.024Z,3.50
2018-07-09T11:24:21.390Z,2.97
2018-07-09T11:26:23.777Z,3.70
2018-07-09T11:28:26.294Z,2.73
2018-07-09T11:30:28.722Z,2.80
2018-07-09T11:32:31.069Z,2.57
2018-07-09T11:34:33.478Z,2.90
2018-07-09T11:36:35.872Z,3.10
2018-07-09T11:38:38.256Z,2.93
2018-07-09T11:40:40.606Z,2.63
2018-07-09T11:42:42.904Z,3.07
2018-07-09T11:44:45.182Z,2.93
2018-07-09T11:46:47.516Z,3.10
2018-07-09T11:48:49.922Z,8.43
2018-07-09T11:50:52.647Z,7.47
2018-07-09T11:52:55.062Z,3.20
2018-07-09T11:54:57.571Z,2.73
2018-07-09T11:56:59.946Z,4.57
2018-07-09T11:59:02.361Z,3.33
2018-07-09T12:01:04.723Z,2.67
2018-07-09T12:03:07.148Z,2.60
2018-07-09T12:05:09.839Z,2.60
2018-07-09T12:07:12.188Z,3.80
2018-07-09T12:09:15.491Z,2.53
2018-07-09T12:11:17.909Z,2.40
2018-07-09T12:13:20.317Z,3.20
2018-07-09T12:15:22.879Z,3.20
2018-07-09T12:17:25.467Z,3.20
2018-07-09T12:19:27.844Z,4.17
2018-07-09T12:21:30.271Z,4.10
2018-07-09T12:23:32.673Z,2.90
2018-07-09T12:25:35.050Z,3.13
2018-07-09T12:27:37.306Z,3.30
2018-07-09T12:29:40.642Z,3.20
2018-07-09T12:31:49.670Z,2.90
2018-07-09T12:33:53.540Z,3.93
2018-07-09T12:35:55.940Z,3.60
2018-07-09T12:37:58.927Z,3.47
2018-07-09T12:40:01.991Z,3.50
2018-07-09T12:42:04.283Z,3.27
2018-07-09T12:44:07.543Z,3.73
2018-07-09T12:46:10.032Z,17.73
2018-07-09T12:48:14.623Z,3.10
2018-07-09T12:50:17.246Z,3.10
2018-07-09T12:52:19.703Z,3.53
2018-07-09T12:54:27.677Z,3.20
2018-07-09T12:56:33.024Z,2.90
2018-07-09T12:58:35.535Z,3.20
2018-07-09T13:00:38.848Z,3.63
2018-07-09T13:02:42.251Z,3.57
2018-07-09T13:04:44.591Z,3.20
2018-07-09T13:06:47.882Z,3.13
2018-07-09T13:08:50.771Z,3.63
2018-07-09T13:10:53.109Z,3.20
2018-07-09T13:12:55.505Z,3.20
2018-07-09T13:14:59.034Z,3.57
2018-07-09T13:17:01.382Z,2.50
2018-07-09T13:19:03.697Z,2.93
2018-07-09T13:21:06.964Z,3.20
2018-07-09T13:23:09.209Z,4.03
2018-07-09T13:25:12.019Z,3.43
2018-07-09T13:27:14.287Z,3.53
2018-07-09T13:29:16.530Z,3.57
2018-07-09T13:31:18.792Z,2.90
2018-07-09T13:33:21.073Z,3.07
2018-07-09T13:35:23.406Z,2.90
2018-07-09T13:37:25.923Z,3.20
2018-07-09T13:39:28.443Z,2.60
2018-07-09T13:41:30.848Z,3.10
2018-07-09T13:43:33.220Z,3.47
2018-07-09T13:45:35.616Z,2.90
2018-07-09T13:47:37.967Z,3.73
2018-07-09T13:49:40.438Z,3.60
2018-07-09T13:51:42.755Z,3.43
2018-07-09T13:53:45.067Z,3.10
2018-07-09T13:55:47.804Z,3.17
2018-07-09T13:57:50.082Z,3.20
2018-07-09T13:59:52.499Z,3.30
2018-07-09T14:01:54.972Z,3.43
2018-07-09T14:03:57.275Z,3.90
2018-07-09T14:06:00.271Z,3.73
2018-07-09T14:08:02.659Z,2.80
2018-07-09T14:10:05.075Z,3.30
2018-07-09T14:12:07.573Z,3.13
2018-07-09T14:16:47.930Z,3.20
2018-07-09T14:18:52.648Z,2.70
2018-07-09T14:20:54.980Z,2.90
2018-07-09T14:22:57.745Z,3.57
2018-07-09T14:25:00.290Z,3.20
2018-07-09T14:27:03.038Z,4.23
2018-07-09T14:29:05.495Z,3.57
2018-07-09T14:31:08.012Z,3.00
2018-07-09T14:33:10.450Z,7.43
2018-07-09T14:35:14.084Z,3.00
2018-07-09T14:37:16.502Z,3.27
2018-07-09T14:39:18.864Z,3.47
2018-07-09T14:41:21.387Z,3.17
2018-07-09T14:43:23.802Z,2.83
2018-07-09T14:45:26.331Z,3.63
2018-07-09T14:47:29.492Z,3.23
2018-07-09T14:49:32.193Z,3.83
2018-07-09T14:51:35.490Z,3.33
2018-07-09T14:53:38.403Z,3.03
2018-07-09T14:55:40.733Z,3.50
2018-07-09T14:57:43.674Z,3.00
2018-07-09T14:59:46.354Z,3.20
2018-07-09T15:01:48.702Z,3.33
2018-07-09T15:03:51.134Z,3.57
2018-07-09T15:05:53.454Z,3.30
2018-07-09T15:07:55.890Z,3.30
2018-07-09T15:09:58.436Z,3.40
2018-07-09T15:12:00.698Z,11.13
2018-07-09T15:16:34.139Z,2.83
2018-07-09T15:18:36.615Z,3.40
2018-07-09T15:20:39.083Z,3.07
2018-07-09T15:22:41.511Z,3.47
2018-07-09T15:24:43.971Z,3.27
2018-07-09T15:26:47.318Z,3.50
2018-07-09T15:28:52.419Z,3.10
2018-07-09T15:30:56.466Z,2.60
2018-07-09T15:32:58.899Z,3.30
2018-07-09T15:35:01.257Z,3.00
2018-07-09T15:37:03.664Z,3.00
2018-07-09T15:39:05.931Z,3.00
2018-07-09T15:41:08.368Z,2.80
2018-07-09T15:43:10.686Z,3.27
2018-07-09T15:45:15.156Z,2.80
2018-07-09T15:47:18.090Z,3.10
2018-07-09T15:49:20.484Z,3.30
2018-07-09T15:51:25.094Z,3.43
2018-07-09T15:53:28.450Z,3.20
2018-07-09T15:55:30.882Z,3.03
2018-07-09T15:57:33.096Z,3.20
2018-07-09T15:59:35.793Z,4.10
2018-07-09T16:01:38.246Z,3.37
2018-07-09T16:03:40.563Z,4.13
2018-07-09T16:08:27.096Z,3.10
2018-07-09T16:10:29.836Z,3.50
2018-07-09T16:12:55.072Z,3.73
2018-07-09T16:15:11.264Z,3.17
2018-07-09T16:17:13.810Z,5.93
2018-07-09T16:19:16.261Z,4.77
2018-07-09T16:21:20.444Z,4.17
2018-07-09T16:23:22.655Z,3.47
2018-07-09T16:25:26.028Z,3.77
2018-07-09T16:27:28.346Z,3.60
2018-07-09T16:29:30.840Z,3.50
2018-07-09T16:31:33.126Z,3.70
2018-07-09T16:33:35.429Z,5.50
2018-07-09T16:35:37.726Z,3.80
2018-07-09T16:37:39.966Z,3.63
2018-07-09T16:39:42.567Z,4.10
2018-07-09T16:41:44.915Z,4.03
2018-07-09T16:46:25.734Z,3.50
2018-07-09T16:48:28.887Z,3.70
2018-07-09T16:50:31.565Z,3.47
2018-07-09T16:52:33.809Z,7.60
2018-07-09T16:54:35.934Z,3.50
2018-07-09T16:56:38.157Z,3.73
2018-07-09T16:58:40.656Z,4.00
2018-07-09T17:00:43.139Z,3.57
2018-07-09T17:02:48.753Z,4.17
2018-07-09T17:04:50.890Z,4.20
2018-07-09T17:06:53.401Z,4.17
2018-07-09T17:08:55.615Z,4.30
2018-07-09T17:10:59.766Z,4.17
2018-07-09T17:13:01.974Z,3.37
2018-07-09T17:15:04.327Z,3.50
2018-07-09T17:17:06.601Z,4.20
2018-07-09T17:19:08.858Z,4.00
2018-07-09T17:21:11.014Z,3.50
2018-07-09T17:23:20.094Z,3.83
2018-07-09T17:25:22.278Z,3.83
2018-07-09T17:27:24.470Z,3.90
2018-07-09T17:29:26.680Z,3.30
2018-07-09T17:31:28.896Z,8.13
2018-07-09T17:33:31.126Z,5.23
2018-07-09T17:35:33.333Z,4.13
2018-07-09T17:37:57.251Z,3.43
2018-07-09T17:39:59.430Z,3.93
2018-07-09T17:42:01.671Z,4.30
2018-07-09T17:44:03.979Z,3.83
2018-07-09T17:46:06.127Z,4.07
2018-07-09T17:48:08.338Z,3.93
2018-07-09T17:50:10.603Z,3.50
2018-07-09T17:52:12.718Z,4.90
2018-07-09T17:54:14.876Z,5.57
2018-07-09T17:56:17.210Z,5.13
2018-07-09T17:58:19.426Z,4.30
2018-07-09T18:00:21.622Z,4.10
2018-07-09T18:02:23.966Z,4.20
2018-07-09T18:04:26.174Z,3.97
2018-07-09T18:06:28.372Z,3.43
2018-07-09T18:08:30.513Z,3.73
2018-07-09T18:10:32.693Z,6.20
2018-07-09T18:12:34.926Z,4.20
2018-07-09T18:14:37.158Z,7.20
2018-07-09T18:16:39.290Z,4.97
2018-07-09T18:18:41.491Z,4.43
2018-07-09T18:20:43.688Z,4.23
2018-07-09T18:22:45.859Z,4.53
2018-07-09T18:24:48.310Z,8.63
2018-07-09T18:26:51.016Z,7.13
2018-07-09T18:28:53.278Z,4.30
2018-07-09T18:30:55.550Z,3.73
2018-07-09T18:32:57.818Z,4.27
2018-07-09T18:34:59.977Z,4.50
2018-07-09T18:37:02.135Z,4.03
2018-07-09T18:39:05.270Z,3.93
2018-07-09T18:41:07.455Z,4.20
2018-07-09T18:43:09.627Z,4.93
2018-07-09T18:45:11.962Z,4.53
2018-07-09T18:47:14.152Z,4.70
2018-07-09T18:51:54.590Z,4.20
2018-07-09T18:53:57.642Z,4.10
2018-07-09T18:55:59.784Z,3.97
2018-07-09T18:58:01.908Z,4.20
2018-07-09T19:00:04.547Z,3.83
2018-07-09T19:02:06.757Z,4.10
2018-07-09T19:04:09.134Z,4.47
2018-07-09T19:06:19.802Z,4.33
2018-07-09T19:08:21.949Z,4.33
2018-07-09T19:10:24.148Z,4.20
2018-07-09T19:12:32.982Z,4.37
2018-07-09T19:14:42.795Z,4.20
2018-07-09T19:16:56.481Z,3.90
2018-07-09T19:19:10.154Z,4.30
2018-07-09T19:21:27.087Z,4.60
2018-07-09T19:23:28.315Z,4.10
2018-07-09T19:25:29.565Z,4.30
2018-07-09T19:27:30.782Z,4.00
2018-07-09T19:29:32.061Z,5.23
2018-07-09T19:31:33.320Z,4.20
2018-07-09T19:33:34.555Z,4.30
2018-07-09T19:35:35.843Z,4.23
2018-07-09T19:37:37.445Z,4.50
2018-07-09T19:39:38.406Z,7.90
2018-07-09T19:41:39.840Z,4.50
2018-07-09T19:43:41.218Z,7.47
2018-07-09T19:45:42.533Z,3.37
2018-07-09T19:47:45.953Z,4.20
2018-07-09T19:49:47.237Z,4.57
2018-07-09T19:51:48.745Z,4.13
2018-07-09T19:53:50.465Z,3.80
2018-07-09T19:55:51.782Z,4.07
2018-07-09T19:57:53.057Z,3.80
2018-07-09T19:59:54.298Z,4.43
2018-07-09T20:01:55.534Z,3.93
2018-07-09T20:03:56.904Z,4.00
2018-07-09T20:05:58.570Z,5.90
2018-07-09T20:08:00.154Z,6.10
2018-07-09T20:10:07.037Z,3.80
2018-07-09T20:12:14.120Z,5.00
2018-07-09T20:14:21.062Z,3.97
2018-07-09T20:16:27.914Z,4.40
2018-07-09T20:18:29.308Z,4.90
2018-07-09T20:20:31.144Z,3.50
2018-07-09T20:22:32.397Z,4.37
2018-07-09T20:24:33.766Z,4.00
2018-07-09T20:26:35.005Z,4.67
2018-07-09T20:28:36.234Z,4.90
2018-07-09T20:30:37.542Z,4.80
2018-07-09T20:32:38.908Z,4.80
2018-07-09T20:34:40.110Z,4.00
2018-07-09T20:36:41.350Z,4.50
2018-07-09T20:38:42.630Z,3.93
2018-07-09T20:40:43.861Z,4.97
2018-07-09T20:42:45.118Z,4.03
2018-07-09T20:44:46.358Z,4.73
2018-07-09T20:46:47.611Z,3.90
2018-07-09T20:48:49.159Z,4.17
2018-07-09T20:50:50.438Z,4.47
2018-07-09T20:52:51.681Z,4.23
2018-07-09T20:54:52.919Z,4.57
2018-07-09T20:56:54.186Z,3.83
2018-07-09T20:58:55.428Z,4.50
2018-07-09T21:00:56.678Z,5.50
2018-07-09T21:02:58.017Z,4.30
2018-07-09T21:04:59.237Z,5.03
2018-07-09T21:07:01.414Z,4.30
2018-07-09T21:09:03.338Z,4.30
2018-07-09T21:11:04.575Z,4.47
2018-07-09T21:13:05.840Z,4.30
2018-07-09T21:15:07.158Z,3.83
2018-07-09T21:17:08.342Z,4.10
2018-07-09T21:19:09.927Z,4.23
2018-07-09T21:21:11.173Z,4.30
2018-07-09T21:23:12.394Z,4.50
2018-07-09T21:25:14.437Z,5.83
2018-07-09T21:27:15.685Z,4.30
2018-07-09T21:29:17.193Z,4.63
2018-07-09T21:31:18.601Z,3.80
2018-07-09T21:33:19.842Z,5.00
2018-07-09T21:35:21.091Z,4.23
2018-07-09T21:37:22.376Z,4.50
2018-07-09T21:39:24.038Z,4.53
2018-07-09T21:43:58.376Z,4.43
2018-07-09T21:45:59.643Z,4.13
2018-07-09T21:48:10.550Z,5.50
2018-07-09T21:50:02.186Z,4.80
2018-07-09T21:52:03.471Z,4.60
2018-07-09T21:54:04.774Z,4.20
2018-07-09T21:56:14.079Z,4.47
2018-07-09T21:58:15.294Z,4.80
2018-07-09T22:00:23.136Z,4.30
2018-07-09T22:02:24.544Z,4.80
2018-07-09T22:04:25.733Z,4.63
2018-07-09T22:06:26.933Z,4.70
2018-07-09T22:08:28.146Z,4.70
2018-07-09T22:10:29.366Z,4.23
2018-07-09T22:12:30.553Z,5.20
2018-07-09T22:14:31.758Z,4.70
2018-07-09T22:16:32.981Z,5.73
2018-07-09T22:18:34.202Z,5.20
2018-07-09T22:20:35.396Z,5.27
2018-07-09T22:22:36.602Z,3.90
2018-07-09T22:27:15.746Z,5.83
2018-07-09T22:29:16.938Z,4.93
2018-07-09T22:31:19.045Z,4.37
2018-07-09T22:33:21.127Z,4.70
2018-07-09T22:35:23.226Z,4.63
2018-07-09T22:37:25.349Z,5.00
2018-07-09T22:39:27.705Z,4.73
2018-07-09T22:41:29.782Z,4.60
2018-07-09T22:43:43.411Z,4.53
2018-07-09T22:45:45.609Z,5.00
2018-07-09T22:47:47.710Z,4.50
2018-07-09T22:49:49.770Z,5.20
2018-07-09T22:51:51.858Z,4.60
2018-07-09T22:53:53.925Z,5.77
2018-07-09T22:56:05.393Z,5.20
2018-07-09T22:58:07.477Z,5.17
2018-07-09T23:00:10.342Z,5.93
2018-07-09T23:02:12.458Z,5.40
2018-07-09T23:04:14.533Z,5.10
2018-07-09T23:06:16.605Z,6.10
2018-07-09T23:08:18.678Z,5.30
2018-07-09T23:12:54.164Z,5.53
2018-07-09T23:15:34.385Z,4.97
2018-07-09T23:17:47.825Z,4.70
2018-07-09T23:22:04.294Z,4.93
2018-07-09T23:24:05.491Z,6.77
2018-07-09T23:26:06.699Z,4.80
2018-07-09T23:28:07.907Z,4.80
2018-07-09T23:30:09.106Z,4.90
2018-07-09T23:32:10.307Z,5.00
2018-07-09T23:34:11.517Z,4.90
2018-07-09T23:36:12.711Z,4.77
2018-07-09T23:38:14.005Z,4.80
2018-07-09T23:40:15.218Z,5.17
2018-07-09T23:42:16.498Z,5.00
2018-07-09T23:44:17.621Z,6.83
2018-07-09T23:46:18.857Z,5.13
2018-07-09T23:48:20.326Z,5.60
2018-07-09T23:50:21.514Z,5.40
2018-07-09T23:52:22.717Z,4.97
2018-07-09T23:54:23.922Z,5.40
2018-07-09T23:59:43.414Z,4.57
